Time;durP1;ratioP1;P1;durP2;ratioP2;P2;SDS_P1;SDS_P2;PMS_P1;PMS_P2;Temp;Humidity;BMP_temperature;BMP_pressure;BME280_temperature;BME280_humidity;BME280_pressure;Samples;Min_cycle;Max_cycle;Signal;HPM_P1;HPM_P2
2022/03/18 00:00:18;;;;;;;150.65;56.83;;;;;;;;;;4975559;28;20161;-61
2022/03/18 00:02:45;;;;;;;157.43;55.20;;;;;;;;;;4975439;28;20055;-60
2022/03/18 00:05:14;;;;;;;151.80;55.58;;;;;;;;;;4975329;28;20278;-60
2022/03/18 00:07:42;;;;;;;151.43;56.78;;;;;;;;;;4975416;28;20137;-61
2022/03/18 00:10:10;;;;;;;161.52;57.70;;;;;;;;;;4975265;28;20496;-61
2022/03/18 00:12:38;;;;;;;150.32;54.70;;;;;;;;;;4975471;28;20047;-60
2022/03/18 00:15:07;;;;;;;158.10;58.13;;;;;;;;;;4973997;28;20049;-59
2022/03/18 00:17:34;;;;;;;151.57;55.63;;;;;;;;;;4975144;28;20047;-60
2022/03/18 00:20:01;;;;;;;161.07;57.60;;;;;;;;;;4974936;28;20054;-60
2022/03/18 00:22:30;;;;;;;160.63;58.45;;;;;;;;;;4975021;28;20113;-60
2022/03/18 00:24:58;;;;;;;157.25;55.78;;;;;;;;;;4974784;28;20054;-62
2022/03/18 00:27:26;;;;;;;149.25;55.35;;;;;;;;;;4975247;28;20054;-60
2022/03/18 00:29:54;;;;;;;151.75;57.97;;;;;;;;;;4974777;28;20062;-61
2022/03/18 00:32:21;;;;;;;147.70;58.72;;;;;;;;;;4974733;28;20051;-61
2022/03/18 00:34:48;;;;;;;151.88;54.70;;;;;;;;;;4974609;28;20054;-61
2022/03/18 00:37:15;;;;;;;157.52;58.78;;;;;;;;;;4974706;28;20483;-60
2022/03/18 00:39:44;;;;;;;147.13;54.47;;;;;;;;;;4974853;28;20058;-61
2022/03/18 00:42:11;;;;;;;149.68;55.47;;;;;;;;;;4974678;28;20066;-61
2022/03/18 00:44:38;;;;;;;143.93;53.75;;;;;;;;;;4974458;28;20057;-61
2022/03/18 00:51:59;;;;;;;153.25;56.30;;;;;;;;;;4974396;28;20050;-61
2022/03/18 00:52:38;;;;;;;149.93;56.00;;;;;;;;;;4974457;28;20166;-61
2022/03/18 00:55:08;;;;;;;154.55;61.10;;;;;;;;;;4974499;28;20397;-61
2022/03/18 00:57:35;;;;;;;147.73;55.90;;;;;;;;;;4974208;28;20055;-59
2022/03/18 01:00:02;;;;;;;148.18;56.97;;;;;;;;;;4974289;28;20390;-59
2022/03/18 01:02:29;;;;;;;146.77;55.42;;;;;;;;;;4974314;28;20051;-60
2022/03/18 01:04:56;;;;;;;153.00;57.28;;;;;;;;;;4973993;28;20056;-60
2022/03/18 01:07:23;;;;;;;158.05;56.15;;;;;;;;;;4974234;28;20526;-61
2022/03/18 01:09:50;;;;;;;148.48;54.90;;;;;;;;;;4974124;28;20055;-60
2022/03/18 01:12:18;;;;;;;149.45;56.47;;;;;;;;;;4974018;28;20062;-61
2022/03/18 01:14:45;;;;;;;157.90;56.72;;;;;;;;;;4974085;28;20412;-59
2022/03/18 01:17:12;;;;;;;149.18;55.20;;;;;;;;;;4973950;28;20531;-61
2022/03/18 01:19:40;;;;;;;151.30;55.95;;;;;;;;;;4974080;28;20504;-61
2022/03/18 01:22:09;;;;;;;154.15;57.50;;;;;;;;;;4973999;28;20073;-61
2022/03/18 01:24:36;;;;;;;149.23;57.15;;;;;;;;;;4973680;28;20051;-61
2022/03/18 01:27:04;;;;;;;150.10;54.92;;;;;;;;;;4973333;28;20416;-61
2022/03/18 01:29:33;;;;;;;145.75;54.42;;;;;;;;;;4974004;28;20411;-60
2022/03/18 01:32:01;;;;;;;142.23;53.47;;;;;;;;;;4973753;28;20054;-61
2022/03/18 01:34:28;;;;;;;148.20;56.15;;;;;;;;;;4973679;28;20050;-61
2022/03/18 01:36:55;;;;;;;147.63;55.00;;;;;;;;;;4973449;28;20051;-60
2022/03/18 01:39:23;;;;;;;146.48;50.78;;;;;;;;;;4974109;28;20459;-58
2022/03/18 01:41:51;;;;;;;145.55;57.50;;;;;;;;;;4973628;28;20061;-59
2022/03/18 01:44:18;;;;;;;149.90;56.13;;;;;;;;;;4973577;28;20046;-59
2022/03/18 01:46:47;;;;;;;149.35;56.88;;;;;;;;;;4973348;28;20061;-61
2022/03/18 01:49:14;;;;;;;143.70;54.53;;;;;;;;;;4973496;28;20062;-60
2022/03/18 01:51:41;;;;;;;145.30;51.70;;;;;;;;;;4973209;28;20055;-59
2022/03/18 01:56:54;;;;;;;146.35;54.25;;;;;;;;;;4973195;28;20062;-60
2022/03/18 01:59:21;;;;;;;148.23;54.80;;;;;;;;;;4973527;28;20468;-60
2022/03/18 02:01:50;;;;;;;138.15;52.70;;;;;;;;;;4973457;28;20065;-60
2022/03/18 02:04:17;;;;;;;146.70;55.35;;;;;;;;;;4973003;28;20051;-60
2022/03/18 02:06:44;;;;;;;141.60;53.50;;;;;;;;;;4973017;28;20064;-59
2022/03/18 02:09:11;;;;;;;144.88;54.28;;;;;;;;;;4973182;28;20050;-59
2022/03/18 02:11:39;;;;;;;143.95;55.33;;;;;;;;;;4973197;28;20046;-60
2022/03/18 02:14:07;;;;;;;158.10;55.88;;;;;;;;;;4973329;28;20427;-60
2022/03/18 02:16:34;;;;;;;144.20;54.92;;;;;;;;;;4972836;28;20074;-60
2022/03/18 02:19:02;;;;;;;143.85;56.10;;;;;;;;;;4972991;28;20051;-60
2022/03/18 02:21:30;;;;;;;141.15;51.97;;;;;;;;;;4973341;28;20492;-60
2022/03/18 02:23:59;;;;;;;139.15;50.80;;;;;;;;;;4973277;28;20046;-60
2022/03/18 02:26:26;;;;;;;145.18;53.00;;;;;;;;;;4972989;28;20516;-59
2022/03/18 02:28:53;;;;;;;148.05;55.40;;;;;;;;;;4972987;28;20286;-60
2022/03/18 02:31:21;;;;;;;144.00;50.67;;;;;;;;;;4973599;28;20061;-61
2022/03/18 02:33:47;;;;;;;151.27;54.88;;;;;;;;;;4973099;28;20423;-60
2022/03/18 02:36:14;;;;;;;151.95;53.42;;;;;;;;;;4972900;28;20139;-60
2022/03/18 02:38:42;;;;;;;140.15;51.28;;;;;;;;;;4974157;28;20047;-60
2022/03/18 02:41:12;;;;;;;147.13;54.03;;;;;;;;;;4977013;28;20086;-60
2022/03/18 02:43:40;;;;;;;135.43;51.22;;;;;;;;;;4977129;28;20413;-59
2022/03/18 02:46:07;;;;;;;144.43;52.35;;;;;;;;;;4957683;28;20058;-60
2022/03/18 02:48:34;;;;;;;148.63;54.10;;;;;;;;;;4957398;29;20449;-59
2022/03/18 02:51:01;;;;;;;140.15;53.10;;;;;;;;;;4957597;29;20134;-59
2022/03/18 02:53:28;;;;;;;142.18;53.65;;;;;;;;;;4957587;29;20424;-60
2022/03/18 02:55:55;;;;;;;142.25;52.72;;;;;;;;;;4957201;28;20055;-59
2022/03/18 02:58:24;;;;;;;147.15;55.97;;;;;;;;;;4957143;29;20055;-61
2022/03/18 03:00:51;;;;;;;139.63;51.38;;;;;;;;;;4957432;29;20457;-61
2022/03/18 03:03:18;;;;;;;138.95;54.80;;;;;;;;;;4957273;29;20062;-60
2022/03/18 03:08:31;;;;;;;144.73;51.60;;;;;;;;;;4957119;29;20094;-60
2022/03/18 03:10:59;;;;;;;142.70;54.33;;;;;;;;;;4957101;28;20062;-60
2022/03/18 03:13:27;;;;;;;139.15;55.10;;;;;;;;;;4956892;29;20057;-60
2022/03/18 03:15:54;;;;;;;128.77;52.05;;;;;;;;;;4956733;29;20055;-60
2022/03/18 03:18:21;;;;;;;136.52;50.63;;;;;;;;;;4956737;29;20051;-60
2022/03/18 03:20:49;;;;;;;137.30;52.25;;;;;;;;;;4957195;28;20501;-60
2022/03/18 03:23:16;;;;;;;134.32;51.03;;;;;;;;;;4956695;29;20055;-60
2022/03/18 03:25:43;;;;;;;137.13;51.60;;;;;;;;;;4956437;29;20059;-60
2022/03/18 03:28:10;;;;;;;139.07;51.65;;;;;;;;;;4957038;28;20051;-59
2022/03/18 03:30:39;;;;;;;129.43;51.08;;;;;;;;;;4957123;29;20054;-60
2022/03/18 03:33:06;;;;;;;131.50;47.53;;;;;;;;;;4956559;29;20479;-60
2022/03/18 03:35:33;;;;;;;123.00;50.78;;;;;;;;;;4956503;29;20058;-60
2022/03/18 03:38:00;;;;;;;124.38;49.53;;;;;;;;;;4956640;29;20055;-60
2022/03/18 03:40:27;;;;;;;132.77;50.17;;;;;;;;;;4956496;29;20571;-60
2022/03/18 03:42:54;;;;;;;130.55;50.55;;;;;;;;;;4956487;29;20054;-60
2022/03/18 03:45:22;;;;;;;137.55;51.67;;;;;;;;;;4969244;28;20061;-60
2022/03/18 03:47:51;;;;;;;131.27;50.08;;;;;;;;;;4975614;28;20074;-60
2022/03/18 03:50:18;;;;;;;133.48;51.85;;;;;;;;;;4975392;28;20149;-60
2022/03/18 03:52:49;;;;;;;140.52;49.92;;;;;;;;;;4975556;28;20058;-60
2022/03/18 03:55:15;;;;;;;135.05;48.83;;;;;;;;;;4975423;28;20055;-59
2022/03/18 03:57:42;;;;;;;136.48;51.22;;;;;;;;;;4975475;28;20057;-60
2022/03/18 04:00:11;;;;;;;132.27;52.17;;;;;;;;;;4975530;28;20147;-61
2022/03/18 04:02:38;;;;;;;131.10;50.55;;;;;;;;;;4975524;28;20046;-60
2022/03/18 04:05:08;;;;;;;140.93;51.30;;;;;;;;;;4975097;28;20053;-61
2022/03/18 04:07:36;;;;;;;128.27;51.45;;;;;;;;;;4975471;28;20058;-61
2022/03/18 04:10:04;;;;;;;129.85;52.75;;;;;;;;;;4975401;28;20480;-61
2022/03/18 04:12:32;;;;;;;129.18;50.22;;;;;;;;;;4975192;28;20058;-60
2022/03/18 04:14:59;;;;;;;132.07;50.38;;;;;;;;;;4975100;28;20069;-61
2022/03/18 04:17:26;;;;;;;134.43;52.33;;;;;;;;;;4975073;28;20054;-60
2022/03/18 04:19:53;;;;;;;136.80;50.70;;;;;;;;;;4975145;28;20046;-62
2022/03/18 04:22:22;;;;;;;136.13;52.90;;;;;;;;;;4975144;28;20410;-61
2022/03/18 04:24:49;;;;;;;139.15;52.00;;;;;;;;;;4974931;28;20051;-61
2022/03/18 04:27:16;;;;;;;139.45;52.13;;;;;;;;;;4974966;28;20051;-62
2022/03/18 04:29:43;;;;;;;133.68;51.35;;;;;;;;;;4975030;28;20055;-61
2022/03/18 04:32:11;;;;;;;127.63;51.50;;;;;;;;;;4974918;28;20043;-61
2022/03/18 04:34:38;;;;;;;127.90;49.47;;;;;;;;;;4974896;28;20051;-61
2022/03/18 04:37:06;;;;;;;133.70;52.63;;;;;;;;;;4974700;28;20420;-61
2022/03/18 04:39:34;;;;;;;137.57;53.00;;;;;;;;;;4974889;28;20051;-61
2022/03/18 04:42:01;;;;;;;127.45;49.90;;;;;;;;;;4974831;28;20489;-61
2022/03/18 04:44:28;;;;;;;126.50;50.38;;;;;;;;;;4974617;28;20058;-62
2022/03/18 04:46:55;;;;;;;124.88;47.92;;;;;;;;;;4974610;28;20497;-61
2022/03/18 04:49:22;;;;;;;126.75;49.63;;;;;;;;;;4974533;28;20501;-61
2022/03/18 04:51:49;;;;;;;120.40;47.70;;;;;;;;;;4974861;28;20105;-60
2022/03/18 04:54:16;;;;;;;126.22;48.97;;;;;;;;;;4974357;28;20416;-62
2022/03/18 04:59:28;;;;;;;122.95;47.92;;;;;;;;;;4974454;28;20057;-62
2022/03/18 05:01:55;;;;;;;134.45;50.92;;;;;;;;;;4973874;28;20055;-61
2022/03/18 05:04:22;;;;;;;129.43;50.40;;;;;;;;;;4974322;28;20316;-62
2022/03/18 05:06:49;;;;;;;136.32;51.28;;;;;;;;;;4974121;28;20051;-61
2022/03/18 05:09:16;;;;;;;120.30;49.03;;;;;;;;;;4974223;28;20051;-62
2022/03/18 05:11:45;;;;;;;115.80;49.80;;;;;;;;;;4974321;28;20390;-61
2022/03/18 05:14:12;;;;;;;121.85;50.75;;;;;;;;;;4974142;28;20137;-62
2022/03/18 05:16:42;;;;;;;129.38;49.25;;;;;;;;;;4974030;28;20051;-61
2022/03/18 05:19:09;;;;;;;119.18;47.85;;;;;;;;;;4974191;28;20468;-62
2022/03/18 05:21:36;;;;;;;128.18;50.45;;;;;;;;;;4974082;28;20050;-62
2022/03/18 05:24:06;;;;;;;125.55;49.70;;;;;;;;;;4973933;28;20138;-60
2022/03/18 05:26:33;;;;;;;124.53;50.00;;;;;;;;;;4973907;28;20538;-60
2022/03/18 05:29:02;;;;;;;123.20;51.28;;;;;;;;;;4974301;28;20140;-62
2022/03/18 05:31:31;;;;;;;126.25;51.97;;;;;;;;;;4973833;28;20499;-62
2022/03/18 05:33:58;;;;;;;126.60;49.90;;;;;;;;;;4973827;28;20053;-61
2022/03/18 05:36:25;;;;;;;124.57;52.35;;;;;;;;;;4973720;28;20489;-62
2022/03/18 05:38:52;;;;;;;128.00;51.22;;;;;;;;;;4973718;28;20061;-60
2022/03/18 05:41:19;;;;;;;127.50;51.92;;;;;;;;;;4973525;28;20129;-61
2022/03/18 05:43:46;;;;;;;126.57;51.00;;;;;;;;;;4973445;28;20059;-62
2022/03/18 05:46:14;;;;;;;125.65;50.25;;;;;;;;;;4954074;29;20134;-62
2022/03/18 05:48:41;;;;;;;129.93;51.70;;;;;;;;;;4954151;29;20057;-60
2022/03/18 05:51:09;;;;;;;121.35;49.90;;;;;;;;;;4954300;29;20058;-61
2022/03/18 05:53:36;;;;;;;124.85;49.35;;;;;;;;;;4954124;29;20047;-60
2022/03/18 05:58:48;;;;;;;120.53;49.15;;;;;;;;;;4954067;29;20054;-62
2022/03/18 06:01:17;;;;;;;127.60;51.22;;;;;;;;;;4954145;29;20147;-61
2022/03/18 06:03:44;;;;;;;129.75;50.72;;;;;;;;;;4953995;29;20051;-61
2022/03/18 06:06:11;;;;;;;128.38;49.92;;;;;;;;;;4953883;29;20058;-61
2022/03/18 06:14:07;;;;;;;120.65;47.83;;;;;;;;;;4953776;28;20058;-61
2022/03/18 06:16:36;;;;;;;122.25;46.97;;;;;;;;;;4954343;29;20417;-60
2022/03/18 06:19:03;;;;;;;121.35;49.25;;;;;;;;;;4953833;29;20109;-61
2022/03/18 06:21:30;;;;;;;122.40;47.30;;;;;;;;;;4953842;29;20106;-61
2022/03/18 06:23:57;;;;;;;118.95;49.40;;;;;;;;;;4954040;29;20061;-61
2022/03/18 06:26:24;;;;;;;113.53;47.60;;;;;;;;;;4953847;29;20064;-61
2022/03/18 06:28:51;;;;;;;120.55;45.85;;;;;;;;;;4953647;29;20051;-61
2022/03/18 06:31:18;;;;;;;121.72;48.13;;;;;;;;;;4953807;29;20047;-62
2022/03/18 06:33:46;;;;;;;116.22;46.45;;;;;;;;;;4953698;29;20051;-62
2022/03/18 06:36:14;;;;;;;112.20;45.35;;;;;;;;;;4953862;29;20390;-62
2022/03/18 06:38:41;;;;;;;111.20;44.20;;;;;;;;;;4953666;29;20390;-61
2022/03/18 06:41:08;;;;;;;103.25;45.45;;;;;;;;;;4954019;29;20056;-62
2022/03/18 06:43:35;;;;;;;108.00;46.63;;;;;;;;;;4954158;28;20055;-62
2022/03/18 06:46:03;;;;;;;103.80;46.58;;;;;;;;;;4953882;29;20051;-62
2022/03/18 06:48:30;;;;;;;104.32;41.70;;;;;;;;;;4954150;29;20082;-61
2022/03/18 06:50:59;;;;;;;97.30;42.53;;;;;;;;;;4953787;29;20057;-62
2022/03/18 06:53:26;;;;;;;101.78;41.45;;;;;;;;;;4953771;29;20051;-61
2022/03/18 06:55:55;;;;;;;95.90;41.00;;;;;;;;;;4953903;28;20413;-61
2022/03/18 06:58:21;;;;;;;101.80;41.80;;;;;;;;;;4953994;29;20494;-61
2022/03/18 07:00:48;;;;;;;102.97;43.17;;;;;;;;;;4953658;29;20055;-61
2022/03/18 07:03:16;;;;;;;101.03;42.97;;;;;;;;;;4953596;29;20062;-61
2022/03/18 07:05:42;;;;;;;103.80;43.65;;;;;;;;;;4953563;29;20090;-62
2022/03/18 07:08:11;;;;;;;95.43;42.08;;;;;;;;;;4953825;29;20058;-62
2022/03/18 07:10:38;;;;;;;96.90;41.72;;;;;;;;;;4953904;29;20496;-62
2022/03/18 07:13:05;;;;;;;98.10;41.72;;;;;;;;;;4953451;29;20051;-61
2022/03/18 07:15:32;;;;;;;94.75;42.33;;;;;;;;;;4953916;29;20055;-62
2022/03/18 07:17:59;;;;;;;99.15;43.65;;;;;;;;;;4953812;29;20051;-62
2022/03/18 07:20:26;;;;;;;92.72;41.25;;;;;;;;;;4953681;29;20058;-62
2022/03/18 07:23:06;;;;;;;90.82;43.42;;;;;;;;;;4953786;29;20051;-62
2022/03/18 07:25:36;;;;;;;97.78;40.90;;;;;;;;;;4955885;28;20047;-64
2022/03/18 07:28:04;;;;;;;92.47;42.00;;;;;;;;;;4957242;28;20072;-61
2022/03/18 07:30:31;;;;;;;95.38;40.65;;;;;;;;;;4957324;29;20489;-61
2022/03/18 07:32:58;;;;;;;91.25;39.95;;;;;;;;;;4957004;29;20467;-62
2022/03/18 07:35:25;;;;;;;86.57;39.35;;;;;;;;;;4956773;29;20098;-62
2022/03/18 07:37:53;;;;;;;88.78;40.42;;;;;;;;;;4957085;29;20055;-62
2022/03/18 07:40:20;;;;;;;88.57;39.80;;;;;;;;;;4956904;29;20150;-61
2022/03/18 07:42:50;;;;;;;80.95;36.50;;;;;;;;;;4956898;29;20501;-62
2022/03/18 07:45:22;;;;;;;87.35;38.65;;;;;;;;;;4956634;28;20141;-62
2022/03/18 07:47:50;;;;;;;88.07;36.17;;;;;;;;;;4956819;29;20055;-62
2022/03/18 07:50:21;;;;;;;91.68;39.40;;;;;;;;;;4956488;29;20114;-62
2022/03/18 07:52:50;;;;;;;90.55;38.75;;;;;;;;;;4956407;28;20065;-62
2022/03/18 07:55:18;;;;;;;89.40;38.72;;;;;;;;;;4956608;28;20098;-62
2022/03/18 07:57:45;;;;;;;88.20;38.67;;;;;;;;;;4956351;29;20047;-63
2022/03/18 08:00:15;;;;;;;89.70;40.60;;;;;;;;;;4956344;29;20049;-63
2022/03/18 08:02:42;;;;;;;84.23;38.50;;;;;;;;;;4956643;29;20051;-62
2022/03/18 08:05:10;;;;;;;86.82;38.72;;;;;;;;;;4956199;29;20054;-63
2022/03/18 08:07:37;;;;;;;92.68;39.53;;;;;;;;;;4956318;29;20055;-62
2022/03/18 08:10:07;;;;;;;85.50;37.30;;;;;;;;;;4956084;29;20051;-62
2022/03/18 08:12:35;;;;;;;86.85;37.83;;;;;;;;;;4956527;28;20051;-63
2022/03/18 08:15:06;;;;;;;88.53;39.72;;;;;;;;;;4956077;28;20056;-63
2022/03/18 08:17:34;;;;;;;85.90;36.15;;;;;;;;;;4955986;29;20477;-63
2022/03/18 08:20:01;;;;;;;83.25;35.83;;;;;;;;;;4955711;29;20047;-63
2022/03/18 08:22:29;;;;;;;86.22;38.58;;;;;;;;;;4955976;28;20051;-63
2022/03/18 08:24:56;;;;;;;79.78;36.55;;;;;;;;;;4955849;29;20055;-62
2022/03/18 08:27:23;;;;;;;83.72;38.00;;;;;;;;;;4955721;29;20051;-62
2022/03/18 08:29:50;;;;;;;89.32;38.05;;;;;;;;;;4955621;29;20059;-62
2022/03/18 08:32:18;;;;;;;87.15;39.92;;;;;;;;;;4955375;29;20062;-62
2022/03/18 08:34:46;;;;;;;87.57;38.72;;;;;;;;;;4955276;29;20051;-62
2022/03/18 08:37:13;;;;;;;83.70;38.63;;;;;;;;;;4954417;28;20070;-62
2022/03/18 08:39:41;;;;;;;91.22;37.42;;;;;;;;;;4955464;29;20051;-62
2022/03/18 08:42:08;;;;;;;83.85;38.88;;;;;;;;;;4955606;29;20174;-63
2022/03/18 08:44:36;;;;;;;92.80;39.97;;;;;;;;;;4955929;29;20051;-62
2022/03/18 08:47:03;;;;;;;95.82;40.20;;;;;;;;;;4956242;29;20067;-62
2022/03/18 08:49:29;;;;;;;96.55;39.80;;;;;;;;;;4955809;29;20051;-62
2022/03/18 08:51:58;;;;;;;94.65;39.08;;;;;;;;;;4955993;29;20052;-63
2022/03/18 08:54:25;;;;;;;92.75;38.35;;;;;;;;;;4956393;29;20409;-63
2022/03/18 08:56:53;;;;;;;96.63;40.50;;;;;;;;;;4956029;29;20047;-62
2022/03/18 08:59:23;;;;;;;94.97;40.72;;;;;;;;;;4956211;29;20055;-62
2022/03/18 09:01:51;;;;;;;93.20;39.03;;;;;;;;;;4955860;29;20134;-62
2022/03/18 09:04:18;;;;;;;92.00;38.97;;;;;;;;;;4955847;29;20051;-62
2022/03/18 09:06:46;;;;;;;95.20;40.75;;;;;;;;;;4955627;29;20051;-64
2022/03/18 09:09:15;;;;;;;96.13;40.70;;;;;;;;;;4955528;29;20114;-62
2022/03/18 09:11:42;;;;;;;94.88;41.53;;;;;;;;;;4955469;29;20051;-61
2022/03/18 09:14:10;;;;;;;91.68;39.33;;;;;;;;;;4955764;29;20048;-62
2022/03/18 09:16:38;;;;;;;94.22;41.90;;;;;;;;;;4955866;29;20058;-62
2022/03/18 09:19:05;;;;;;;100.43;44.53;;;;;;;;;;4955696;29;20520;-62
2022/03/18 09:21:32;;;;;;;104.20;43.15;;;;;;;;;;4955377;29;20420;-63
2022/03/18 09:24:00;;;;;;;100.97;43.00;;;;;;;;;;4955739;29;20077;-63
2022/03/18 09:26:29;;;;;;;101.32;41.15;;;;;;;;;;4955642;29;20138;-63
2022/03/18 09:28:56;;;;;;;91.60;39.47;;;;;;;;;;4955757;29;20062;-64
2022/03/18 09:31:23;;;;;;;91.20;39.80;;;;;;;;;;4956388;28;20058;-62
2022/03/18 09:33:50;;;;;;;98.18;41.75;;;;;;;;;;4955276;28;20068;-62
2022/03/18 09:36:18;;;;;;;103.40;42.03;;;;;;;;;;4955782;29;20051;-62
2022/03/18 09:38:46;;;;;;;104.45;43.30;;;;;;;;;;4955240;29;20063;-63
2022/03/18 09:41:13;;;;;;;99.07;43.20;;;;;;;;;;4955562;29;20062;-61
2022/03/18 09:43:42;;;;;;;94.88;41.28;;;;;;;;;;4955459;28;20053;-62
2022/03/18 09:46:11;;;;;;;92.55;40.90;;;;;;;;;;4955633;29;20069;-61
2022/03/18 09:48:39;;;;;;;92.18;41.53;;;;;;;;;;4955003;28;20058;-64
2022/03/18 09:51:06;;;;;;;95.70;42.70;;;;;;;;;;4954917;29;20047;-63
2022/03/18 09:53:34;;;;;;;97.45;42.20;;;;;;;;;;4954607;28;20054;-62
2022/03/18 09:56:02;;;;;;;104.07;43.78;;;;;;;;;;4954802;29;20102;-63
2022/03/18 09:58:29;;;;;;;97.95;43.50;;;;;;;;;;4955006;28;20562;-61
2022/03/18 10:00:58;;;;;;;105.47;44.03;;;;;;;;;;4954816;29;20057;-63
2022/03/18 10:03:37;;;;;;;102.32;41.95;;;;;;;;;;4954905;29;20429;-63
2022/03/18 10:06:04;;;;;;;100.47;43.72;;;;;;;;;;4954268;29;20456;-63
2022/03/18 10:08:51;;;;;;;105.22;42.38;;;;;;;;;;4954381;29;20057;-62
2022/03/18 10:11:19;;;;;;;112.35;43.85;;;;;;;;;;4954651;29;20357;-61
2022/03/18 10:13:54;;;;;;;94.32;41.67;;;;;;;;;;4976035;23;21198;-81
2022/03/18 10:16:37;;;;;;;97.50;42.10;;;;;;;;;;4977693;28;20058;-80
2022/03/18 10:19:07;;;;;;;96.90;40.53;;;;;;;;;;4978303;28;20129;-80
2022/03/18 10:21:35;;;;;;;98.90;42.37;;;;;;;;;;4977101;28;20050;-79
2022/03/18 10:24:07;;;;;;;93.15;39.97;;;;;;;;;;4977345;28;20289;-79
2022/03/18 10:26:36;;;;;;;105.25;42.78;;;;;;;;;;4977795;28;20458;-79
2022/03/18 10:29:04;;;;;;;104.32;42.95;;;;;;;;;;4984719;28;20474;-80
2022/03/18 10:31:31;;;;;;;97.35;41.17;;;;;;;;;;4981727;28;20047;-80
2022/03/18 10:37:08;;;;;;;94.35;37.78;;;;;;;;;;4976804;28;20057;-79
2022/03/18 10:39:38;;;;;;;95.38;41.60;;;;;;;;;;4977427;28;20467;-79
2022/03/18 10:42:09;;;;;;;85.53;37.03;;;;;;;;;;4976955;28;20050;-78
2022/03/18 10:44:46;;;;;;;;;;;;;;;;;;4978045;28;20478;-80
2022/03/18 10:47:27;;;;;;;88.82;36.95;;;;;;;;;;4976381;28;20297;-79
2022/03/18 10:50:14;;;;;;;88.15;37.95;;;;;;;;;;4977124;28;20057;-81
2022/03/18 10:53:01;;;;;;;87.68;37.22;;;;;;;;;;4976773;28;20085;-82
2022/03/18 10:55:31;;;;;;;86.75;37.80;;;;;;;;;;4977205;28;20051;-81
2022/03/18 10:58:00;;;;;;;84.32;37.67;;;;;;;;;;4977536;28;20509;-81
2022/03/18 11:00:29;;;;;;;84.57;35.60;;;;;;;;;;4979116;28;20086;-81
2022/03/18 11:02:58;;;;;;;89.22;38.42;;;;;;;;;;4981135;28;20105;-80
2022/03/18 11:05:27;;;;;;;80.25;35.53;;;;;;;;;;4980907;28;20055;-78
2022/03/18 11:07:55;;;;;;;87.72;37.65;;;;;;;;;;4980900;28;20046;-80
2022/03/18 11:13:08;;;;;;;88.63;39.83;;;;;;;;;;4980991;28;20553;-79
2022/03/18 11:15:36;;;;;;;88.25;39.65;;;;;;;;;;4980682;28;20469;-80
2022/03/18 11:18:04;;;;;;;85.53;35.88;;;;;;;;;;4981226;28;20117;-80
2022/03/18 11:20:33;;;;;;;81.60;36.65;;;;;;;;;;4981151;28;20078;-79
2022/03/18 11:23:00;;;;;;;87.28;36.58;;;;;;;;;;4980818;28;20186;-79
2022/03/18 11:25:29;;;;;;;83.50;36.70;;;;;;;;;;4980646;28;20058;-79
2022/03/18 11:27:58;;;;;;;84.05;37.45;;;;;;;;;;4980110;28;20046;-79
2022/03/18 11:30:27;;;;;;;87.57;39.20;;;;;;;;;;4980298;28;20486;-80
2022/03/18 11:33:22;;;;;;;86.05;37.22;;;;;;;;;;4980605;28;20407;-79
2022/03/18 11:36:13;;;;;;;93.65;38.10;;;;;;;;;;4980690;28;20078;-79
2022/03/18 11:38:53;;;;;;;86.35;37.03;;;;;;;;;;4981316;28;20074;-79
2022/03/18 11:41:20;;;;;;;85.13;38.00;;;;;;;;;;4980379;28;20055;-79
2022/03/18 11:43:52;;;;;;;85.70;36.30;;;;;;;;;;4980588;28;20054;-80
2022/03/18 11:46:27;;;;;;;87.60;40.15;;;;;;;;;;4981062;28;20123;-79
2022/03/18 11:48:57;;;;;;;85.57;38.10;;;;;;;;;;4980532;28;20096;-80
2022/03/18 11:51:28;;;;;;;;;;;;;;;;;;4980680;28;20057;-78
2022/03/18 11:53:56;;;;;;;97.97;36.75;;;;;;;;;;4980276;28;19926;-80
2022/03/18 11:56:41;;;;;;;89.00;38.15;;;;;;;;;;4980512;28;20047;-80
2022/03/18 11:59:40;;;;;;;98.38;37.72;;;;;;;;;;4994615;28;20045;-79
2022/03/18 12:02:08;;;;;;;80.95;35.55;;;;;;;;;;4995400;28;20050;-79
2022/03/18 12:04:43;;;;;;;78.57;35.83;;;;;;;;;;4992030;28;20109;-80
2022/03/18 12:07:18;;;;;;;74.25;33.80;;;;;;;;;;4982778;28;20051;-80
2022/03/18 12:10:00;;;;;;;80.68;33.88;;;;;;;;;;4981145;28;20058;-80
2022/03/18 12:12:32;;;;;;;70.78;34.35;;;;;;;;;;4979373;28;20486;-80
2022/03/18 12:15:02;;;;;;;78.78;36.65;;;;;;;;;;4978691;28;20089;-79
2022/03/18 12:17:29;;;;;;;82.93;35.20;;;;;;;;;;4978921;28;20042;-79
2022/03/18 12:19:57;;;;;;;80.72;35.25;;;;;;;;;;4978966;28;20055;-78
2022/03/18 12:22:29;;;;;;;75.90;34.97;;;;;;;;;;4978608;28;20050;-79
2022/03/18 12:24:57;;;;;;;83.03;38.72;;;;;;;;;;4978288;28;20054;-79
2022/03/18 12:27:29;;;;;;;87.38;37.33;;;;;;;;;;4979656;28;20139;-79
2022/03/18 12:29:58;;;;;;;80.40;35.65;;;;;;;;;;4979125;28;20104;-80
2022/03/18 12:32:25;;;;;;;82.80;37.55;;;;;;;;;;4979639;28;20050;-79
2022/03/18 12:34:54;;;;;;;80.03;36.70;;;;;;;;;;4978673;28;20387;-80
2022/03/18 12:37:22;;;;;;;82.45;37.28;;;;;;;;;;4981283;28;20083;-79
2022/03/18 12:40:02;;;;;;;87.00;39.63;;;;;;;;;;4981927;28;20077;-79
2022/03/18 12:42:29;;;;;;;83.28;37.53;;;;;;;;;;4978800;28;20399;-79
2022/03/18 12:44:59;;;;;;;75.07;36.38;;;;;;;;;;4968900;28;20075;-80
2022/03/18 12:47:28;;;;;;;90.47;38.75;;;;;;;;;;4959165;28;20083;-81
2022/03/18 12:49:54;;;;;;;85.68;37.60;;;;;;;;;;4958988;29;20495;-79
2022/03/18 12:52:21;;;;;;;87.20;38.25;;;;;;;;;;4958965;29;20062;-80
2022/03/18 12:55:08;;;;;;;77.10;35.45;;;;;;;;;;4958788;29;20062;-80
2022/03/18 12:57:38;;;;;;;76.38;35.58;;;;;;;;;;4958894;29;20051;-79
2022/03/18 13:00:08;;;;;;;83.37;36.03;;;;;;;;;;4958212;29;20499;-78
2022/03/18 13:02:35;;;;;;;78.85;36.53;;;;;;;;;;4959071;28;20055;-79
2022/03/18 13:05:05;;;;;;;77.65;36.65;;;;;;;;;;4958060;29;20086;-80
2022/03/18 13:07:32;;;;;;;85.10;39.45;;;;;;;;;;4959204;29;20055;-79
2022/03/18 13:09:59;;;;;;;78.75;36.33;;;;;;;;;;4958540;29;20047;-78
2022/03/18 13:12:29;;;;;;;84.60;37.22;;;;;;;;;;4958274;29;20052;-79
2022/03/18 13:14:57;;;;;;;72.90;35.45;;;;;;;;;;4957795;28;20495;-79
2022/03/18 13:17:27;;;;;;;77.47;35.67;;;;;;;;;;4958042;29;20047;-79
2022/03/18 13:19:56;;;;;;;81.13;37.58;;;;;;;;;;4958692;29;20495;-78
2022/03/18 13:22:23;;;;;;;77.40;37.25;;;;;;;;;;4958208;28;20047;-79
2022/03/18 13:24:52;;;;;;;73.50;35.28;;;;;;;;;;4960327;29;20051;-80
2022/03/18 13:27:20;;;;;;;79.55;37.63;;;;;;;;;;4957338;29;20447;-80
2022/03/18 13:32:53;;;;;;;81.05;39.75;;;;;;;;;;4959969;29;20166;-80
2022/03/18 13:35:22;;;;;;;80.85;37.63;;;;;;;;;;4957393;29;20054;-79
2022/03/18 13:38:06;;;;;;;84.25;37.65;;;;;;;;;;4957342;29;20044;-80
2022/03/18 13:40:33;;;;;;;72.55;36.35;;;;;;;;;;4960602;29;20074;-78
2022/03/18 13:43:04;;;;;;;73.63;36.78;;;;;;;;;;4959982;29;20051;-78
2022/03/18 13:45:33;;;;;;;78.88;37.03;;;;;;;;;;4973123;28;20080;-79
2022/03/18 13:48:00;;;;;;;72.00;36.85;;;;;;;;;;4977838;28;20050;-79
2022/03/18 13:50:43;;;;;;;79.53;34.50;;;;;;;;;;4977202;28;20469;-80
2022/03/18 13:53:19;;;;;;;77.05;36.85;;;;;;;;;;4983629;28;20051;-78
2022/03/18 13:55:46;;;;;;;77.68;37.22;;;;;;;;;;4985644;28;20082;-78
2022/03/18 13:58:12;;;;;;;69.30;34.95;;;;;;;;;;4987921;28;20051;-78
2022/03/18 14:00:41;;;;;;;73.15;35.20;;;;;;;;;;4982526;28;20050;-79
2022/03/18 14:03:12;;;;;;;72.70;35.58;;;;;;;;;;4980062;28;20046;-78
2022/03/18 14:05:39;;;;;;;71.55;36.15;;;;;;;;;;4981175;28;20055;-79
2022/03/18 14:08:07;;;;;;;68.97;35.10;;;;;;;;;;4979249;28;20050;-79
2022/03/18 14:10:45;;;;;;;70.43;36.22;;;;;;;;;;4977738;28;20051;-80
2022/03/18 14:13:14;;;;;;;72.63;35.75;;;;;;;;;;4976468;28;20055;-78
2022/03/18 14:15:45;;;;;;;70.65;34.47;;;;;;;;;;4977805;28;20055;-81
2022/03/18 14:18:12;;;;;;;66.43;35.45;;;;;;;;;;4979441;28;20086;-80
2022/03/18 14:20:59;;;;;;;67.25;34.85;;;;;;;;;;4979343;28;20135;-80
2022/03/18 14:23:28;;;;;;;74.38;36.00;;;;;;;;;;4978473;28;20046;-80
2022/03/18 14:25:57;;;;;;;71.03;35.28;;;;;;;;;;4978920;28;20097;-80
2022/03/18 14:28:25;;;;;;;65.38;33.95;;;;;;;;;;4977653;28;20046;-79
2022/03/18 14:30:53;;;;;;;68.97;35.17;;;;;;;;;;4978510;28;20054;-79
2022/03/18 14:33:22;;;;;;;76.35;36.90;;;;;;;;;;4977954;28;20078;-80
2022/03/18 14:35:52;;;;;;;73.65;34.22;;;;;;;;;;4981310;28;20050;-80
2022/03/18 14:38:19;;;;;;;63.10;31.73;;;;;;;;;;4982477;28;20050;-79
2022/03/18 14:40:46;;;;;;;69.60;33.70;;;;;;;;;;4982892;28;20289;-81
2022/03/18 14:43:13;;;;;;;61.63;31.60;;;;;;;;;;4981677;28;20051;-79
2022/03/18 14:45:40;;;;;;;74.38;35.90;;;;;;;;;;4966414;28;20055;-80
2022/03/18 14:48:09;;;;;;;66.90;34.15;;;;;;;;;;4962462;29;20051;-79